Time;durP1;ratioP1;P1;durP2;ratioP2;P2;SDS_P1;SDS_P2;PMS_P1;PMS_P2;Temp;Humidity;BMP_temperature;BMP_pressure;BME280_temperature;BME280_humidity;BME280_pressure;Samples;Min_cycle;Max_cycle;Signal;HPM_P1;HPM_P2
2021/05/20 00:00:34;;;;;;;25.03;20.90;;;;;;;10.13;78.69;98688.72;124582;1104;64367;-84
2021/05/20 00:03:15;;;;;;;25.97;20.07;;;;;;;10.10;78.74;98695.11;124546;1104;64361;-84
2021/05/20 00:05:42;;;;;;;25.10;20.47;;;;;;;10.07;78.76;98692.67;124522;1104;64393;-84
2021/05/20 00:08:09;;;;;;;26.50;19.83;;;;;;;10.08;78.76;98691.70;124521;1099;64352;-84
2021/05/20 00:10:37;;;;;;;24.53;19.97;;;;;;;10.05;78.76;98698.09;124553;1104;64352;-84
2021/05/20 00:13:05;;;;;;;24.80;19.87;;;;;;;10.06;78.76;98702.47;124661;1098;64290;-84
2021/05/20 00:15:32;;;;;;;23.50;18.40;;;;;;;10.06;78.90;98699.81;124782;1105;64253;-84
2021/05/20 00:17:59;;;;;;;21.45;18.20;;;;;;;10.09;79.01;98696.92;124584;1100;64393;-84
2021/05/20 00:20:27;;;;;;;24.93;19.70;;;;;;;10.09;78.80;98696.08;124540;1099;64358;-84
2021/05/20 00:22:54;;;;;;;24.55;20.15;;;;;;;10.11;78.89;98694.17;124555;1104;64339;-84
2021/05/20 00:25:22;;;;;;;23.63;20.17;;;;;;;10.13;78.87;98699.38;124579;1104;64500;-85
2021/05/20 00:27:49;;;;;;;24.83;20.07;;;;;;;10.10;78.86;98700.44;124546;1104;64333;-84
2021/05/20 00:30:17;;;;;;;24.83;19.63;;;;;;;10.08;78.91;98703.22;124644;1098;64329;-85
2021/05/20 00:32:44;;;;;;;24.17;19.77;;;;;;;10.04;78.76;98699.05;124717;1104;64518;-84
2021/05/20 00:35:11;;;;;;;28.50;20.83;;;;;;;10.03;78.96;98704.47;124577;1099;64329;-84
2021/05/20 00:37:39;;;;;;;23.00;18.13;;;;;;;10.02;78.92;98703.63;124547;1104;64358;-84
2021/05/20 00:40:07;;;;;;;21.43;16.50;;;;;;;10.03;78.99;98707.14;124602;1105;64249;-84
2021/05/20 00:42:34;;;;;;;22.37;16.03;;;;;;;10.04;78.92;98706.20;124776;1104;64313;-84
2021/05/20 00:45:06;;;;;;;23.90;18.53;;;;;;;10.04;79.05;98704.38;124778;1104;64480;-84
2021/05/20 00:47:34;;;;;;;23.63;19.77;;;;;;;10.06;78.91;98713.13;124688;1100;64333;-84
2021/05/20 00:50:06;;;;;;;22.97;20.20;;;;;;;10.08;79.18;98708.55;124786;1105;64255;-84
2021/05/20 00:52:34;;;;;;;22.63;20.23;;;;;;;10.06;79.21;98698.96;124740;1099;64310;-84
2021/05/20 00:55:07;;;;;;;24.93;19.80;;;;;;;10.04;79.15;98707.05;124791;1098;64339;-84
2021/05/20 00:57:35;;;;;;;22.93;19.40;;;;;;;10.06;79.23;98714.94;124649;1104;64463;-84
2021/05/20 01:00:11;;;;;;;23.63;18.90;;;;;;;10.05;79.26;98705.23;124621;1099;64317;-84
2021/05/20 01:02:40;;;;;;;22.97;18.53;;;;;;;10.05;79.36;98714.06;124661;1104;64259;-85
2021/05/20 01:05:11;;;;;;;22.17;19.70;;;;;;;10.07;79.49;98709.48;124616;1100;64290;-84
2021/05/20 01:07:38;;;;;;;21.53;18.83;;;;;;;10.13;79.55;98712.69;124552;1105;64457;-84
2021/05/20 01:10:07;;;;;;;25.67;22.83;;;;;;;10.15;79.51;98716.10;124615;1100;64282;-84
2021/05/20 01:12:35;;;;;;;25.47;22.77;;;;;;;10.15;79.39;98713.44;124612;1104;64324;-85
2021/05/20 01:15:03;;;;;;;26.87;23.90;;;;;;;10.15;79.50;98719.61;124515;1098;64419;-84
2021/05/20 01:17:31;;;;;;;25.80;23.05;;;;;;;10.15;79.36;98708.95;124595;1104;64316;-84
2021/05/20 01:19:58;;;;;;;23.63;20.03;;;;;;;10.13;79.31;98710.02;124529;1100;64400;-84
2021/05/20 01:22:25;;;;;;;25.53;22.80;;;;;;;10.11;79.38;98708.33;124574;1104;64377;-84
2021/05/20 01:24:52;;;;;;;25.30;22.60;;;;;;;10.13;79.54;98710.02;124566;1100;64667;-84
2021/05/20 01:27:20;;;;;;;24.67;21.97;;;;;;;10.10;79.36;98717.26;124573;1104;64348;-84
2021/05/20 01:29:47;;;;;;;22.50;19.77;;;;;;;10.09;79.56;98720.89;124533;1104;64405;-84
2021/05/20 01:32:14;;;;;;;27.03;21.70;;;;;;;10.08;79.52;98713.88;124501;1104;64378;-85
2021/05/20 01:34:41;;;;;;;22.50;20.10;;;;;;;10.08;79.60;98718.32;124553;1104;64473;-84
2021/05/20 01:37:09;;;;;;;26.53;21.93;;;;;;;10.06;79.79;98717.60;124522;1104;64441;-83
2021/05/20 01:39:39;;;;;;;25.03;22.37;;;;;;;10.00;79.83;98718.85;124561;1105;64370;-84
2021/05/20 01:42:08;;;;;;;23.53;19.43;;;;;;;9.96;79.88;98719.19;124533;1104;64344;-84
2021/05/20 01:44:35;;;;;;;19.83;17.73;;;;;;;9.87;79.91;98718.87;124531;1105;64309;-84
2021/05/20 01:47:03;;;;;;;23.20;19.40;;;;;;;9.85;79.96;98719.93;124542;1104;64330;-84
2021/05/20 01:49:30;;;;;;;22.73;18.93;;;;;;;9.87;80.28;98725.97;124573;1104;64341;-84
2021/05/20 01:51:57;;;;;;;21.37;18.17;;;;;;;9.87;80.34;98723.31;124633;1099;64345;-85
2021/05/20 01:54:24;;;;;;;25.00;18.50;;;;;;;9.86;80.36;98725.13;124591;1104;64329;-85
2021/05/20 01:56:51;;;;;;;23.77;21.13;;;;;;;9.85;80.31;98727.91;124625;1104;64473;-85
2021/05/20 01:59:19;;;;;;;29.60;25.27;;;;;;;9.87;80.54;98724.19;124697;1099;64265;-84
2021/05/20 02:01:46;;;;;;;24.53;21.43;;;;;;;9.87;80.50;98721.53;124555;1104;64339;-84
2021/05/20 02:04:13;;;;;;;25.00;20.03;;;;;;;9.85;80.39;98723.44;124676;1104;64284;-84
2021/05/20 02:06:41;;;;;;;23.40;19.03;;;;;;;9.86;80.51;98721.63;124632;1104;64365;-85
2021/05/20 02:09:08;;;;;;;20.73;18.30;;;;;;;9.84;80.54;98732.36;124538;1104;64382;-84
2021/05/20 02:11:35;;;;;;;21.07;18.93;;;;;;;9.83;80.53;98725.34;124641;1104;64333;-85
2021/05/20 02:14:03;;;;;;;22.20;18.50;;;;;;;9.82;80.55;98731.63;124561;1100;64342;-84
2021/05/20 02:16:30;;;;;;;21.53;19.27;;;;;;;9.80;80.81;98730.88;124594;1104;64344;-85
2021/05/20 02:18:58;;;;;;;20.97;18.63;;;;;;;9.80;80.70;98738.02;124693;1099;64281;-84
2021/05/20 02:21:25;;;;;;;19.73;15.37;;;;;;;9.79;80.80;98737.14;124580;1099;64367;-84
2021/05/20 02:23:52;;;;;;;17.10;15.40;;;;;;;9.81;80.85;98739.71;124570;1100;64352;-85
2021/05/20 02:26:20;;;;;;;18.57;16.23;;;;;;;9.82;80.74;98736.96;124525;1105;64256;-84
2021/05/20 02:28:47;;;;;;;18.37;16.57;;;;;;;9.84;80.72;98740.34;124570;1104;64341;-85
2021/05/20 02:31:14;;;;;;;20.30;17.03;;;;;;;9.83;80.73;98735.98;124545;1105;64246;-84
2021/05/20 02:33:41;;;;;;;19.70;17.40;;;;;;;9.81;80.73;98740.55;124514;1100;64403;-84
2021/05/20 02:36:08;;;;;;;20.55;18.15;;;;;;;9.78;80.82;98742.58;124613;1105;64486;-85
2021/05/20 02:39:12;;;;;;;19.70;17.27;;;;;;;9.74;80.85;98743.73;124502;1099;65514;-85
2021/05/20 02:41:39;;;;;;;17.70;15.67;;;;;;;9.72;80.82;98741.20;124561;1105;64395;-85
2021/05/20 02:44:07;;;;;;;17.17;15.23;;;;;;;9.69;80.97;98741.41;124665;1104;64336;-84
2021/05/20 02:46:35;;;;;;;17.10;13.47;;;;;;;9.71;80.87;98747.45;124514;1105;64463;-85
2021/05/20 02:49:02;;;;;;;17.17;13.83;;;;;;;9.76;80.89;98744.49;124594;1099;64343;-85
2021/05/20 02:51:30;;;;;;;16.03;14.40;;;;;;;9.79;80.97;98747.78;124683;1104;64342;-85
2021/05/20 02:53:57;;;;;;;17.23;13.80;;;;;;;9.84;80.71;98743.00;124766;1104;64365;-84
2021/05/20 02:56:25;;;;;;;19.00;15.13;;;;;;;9.84;80.78;98745.67;124675;1104;64285;-85
2021/05/20 02:58:52;;;;;;;17.00;15.10;;;;;;;9.82;80.74;98755.59;124703;1105;64496;-85
2021/05/20 03:01:22;;;;;;;17.90;15.03;;;;;;;9.81;80.81;98759.19;124639;1104;64378;-85
2021/05/20 03:03:50;;;;;;;17.77;15.83;;;;;;;9.77;80.69;98759.48;124662;1104;64287;-85
2021/05/20 03:06:17;;;;;;;19.10;16.40;;;;;;;9.77;80.77;98770.14;124582;1105;64345;-84
2021/05/20 03:08:44;;;;;;;18.93;15.23;;;;;;;9.74;80.80;98768.56;124571;1104;64255;-85
2021/05/20 03:11:11;;;;;;;16.93;15.07;;;;;;;9.77;80.76;98768.35;124553;1104;64454;-84
2021/05/20 03:13:39;;;;;;;15.87;13.73;;;;;;;9.80;80.72;98772.61;124567;1099;64333;-84
2021/05/20 03:16:06;;;;;;;15.80;14.03;;;;;;;9.81;80.83;98768.98;124515;1105;64259;-85
2021/05/20 03:18:33;;;;;;;17.50;14.03;;;;;;;9.89;80.74;98771.98;124577;1104;64368;-84
2021/05/20 03:21:00;;;;;;;14.70;13.03;;;;;;;9.99;80.65;98769.55;124496;1105;64330;-84
2021/05/20 03:23:28;;;;;;;14.37;12.93;;;;;;;10.28;80.26;98772.91;124579;1099;64387;-84
2021/05/20 03:25:55;;;;;;;13.43;12.03;;;;;;;10.63;79.79;98769.58;124572;1105;64346;-84
2021/05/20 03:28:22;;;;;;;13.70;12.30;;;;;;;11.39;78.80;98772.03;124618;1104;64348;-84
2021/05/20 03:30:51;;;;;;;14.37;12.87;;;;;;;11.96;77.88;98767.82;124605;1104;64464;-84
2021/05/20 03:33:18;;;;;;;14.20;12.67;;;;;;;11.75;77.49;98775.61;124559;1104;64335;-83
2021/05/20 03:35:45;;;;;;;14.17;12.77;;;;;;;11.60;77.50;98776.75;124542;1104;64957;-84
2021/05/20 03:38:12;;;;;;;15.55;14.00;;;;;;;11.54;77.36;98777.22;124578;1104;64375;-84
2021/05/20 03:40:39;;;;;;;15.90;13.33;;;;;;;11.57;77.36;98771.64;124556;1100;64368;-85
2021/05/20 03:43:07;;;;;;;13.25;11.85;;;;;;;11.83;76.69;98775.88;124677;1105;64368;-85
2021/05/20 03:45:34;;;;;;;14.27;12.30;;;;;;;12.10;76.37;98776.59;124649;1100;64364;-85
2021/05/20 03:48:01;;;;;;;14.37;12.27;;;;;;;11.79;76.44;98779.73;124517;1099;64574;-85
2021/05/20 03:50:28;;;;;;;15.47;13.10;;;;;;;11.56;76.61;98784.14;124566;1104;64450;-85
2021/05/20 03:52:59;;;;;;;13.25;11.55;;;;;;;11.42;76.83;98795.81;124540;1100;64333;-85
2021/05/20 03:55:26;;;;;;;14.30;12.50;;;;;;;11.31;76.97;98792.25;124641;1104;64644;-84
2021/05/20 03:57:53;;;;;;;12.87;11.67;;;;;;;11.26;77.09;98794.40;124582;1100;64453;-84
2021/05/20 04:00:21;;;;;;;13.13;11.73;;;;;;;11.18;77.09;98787.80;124571;1099;64389;-84
2021/05/20 04:02:49;;;;;;;12.03;10.83;;;;;;;11.15;77.07;98787.17;124551;1104;64441;-85
2021/05/20 04:05:16;;;;;;;12.55;10.70;;;;;;;11.18;77.41;98790.47;124539;1104;64246;-84
2021/05/20 04:07:44;;;;;;;12.10;10.47;;;;;;;11.18;77.28;98786.95;124593;1104;64345;-84
2021/05/20 04:10:12;;;;;;;13.93;11.37;;;;;;;11.20;77.24;98793.88;124555;1100;64333;-84
2021/05/20 04:12:39;;;;;;;12.55;11.30;;;;;;;11.21;77.24;98800.91;124508;1104;64499;-84
2021/05/20 04:15:07;;;;;;;12.83;11.63;;;;;;;11.24;77.37;98799.83;124528;1100;64464;-84
2021/05/20 04:17:34;;;;;;;12.47;11.17;;;;;;;11.25;77.18;98806.89;124504;1104;64431;-84
2021/05/20 04:20:02;;;;;;;15.37;12.80;;;;;;;11.25;77.39;98806.05;124545;1104;64385;-84
2021/05/20 04:22:29;;;;;;;14.93;13.27;;;;;;;11.27;77.39;98809.42;124565;1100;64310;-84
2021/05/20 04:24:56;;;;;;;13.40;12.10;;;;;;;11.30;77.30;98815.41;124528;1100;64316;-84
2021/05/20 04:27:24;;;;;;;14.20;12.17;;;;;;;11.29;77.15;98816.36;124556;1104;64489;-84
2021/05/20 04:29:51;;;;;;;14.77;13.27;;;;;;;11.27;77.37;98815.64;124540;1105;64282;-84
2021/05/20 04:32:18;;;;;;;14.53;13.00;;;;;;;11.30;77.32;98820.75;124562;1104;64339;-84
2021/05/20 04:34:45;;;;;;;15.67;13.93;;;;;;;11.28;77.13;98824.48;124543;1104;64312;-84
2021/05/20 04:37:13;;;;;;;15.30;13.80;;;;;;;11.34;77.15;98821.36;124618;1100;64442;-84
2021/05/20 04:39:42;;;;;;;14.95;13.25;;;;;;;11.40;76.96;98826.24;124646;1104;64917;-84
2021/05/20 04:42:09;;;;;;;15.70;14.05;;;;;;;11.45;76.85;98817.91;124633;1104;64374;-84
2021/05/20 04:44:36;;;;;;;15.43;13.10;;;;;;;11.50;76.83;98821.94;124522;1104;64348;-84
2021/05/20 04:47:04;;;;;;;14.50;12.95;;;;;;;11.61;76.82;98821.14;124582;1099;64377;-84
2021/05/20 04:49:31;;;;;;;14.30;12.85;;;;;;;11.71;76.64;98830.18;124525;1098;64364;-84
2021/05/20 04:51:58;;;;;;;14.33;12.70;;;;;;;11.78;76.64;98825.25;124543;1104;64840;-84
2021/05/20 04:54:26;;;;;;;15.63;12.93;;;;;;;11.84;76.48;98833.64;124681;1100;64367;-84
2021/05/20 04:56:53;;;;;;;16.33;13.67;;;;;;;11.86;76.45;98830.90;124709;1104;64329;-79
2021/05/20 04:59:20;;;;;;;15.65;13.60;;;;;;;11.80;76.13;98836.67;124618;1098;64325;-80
2021/05/20 05:01:47;;;;;;;16.23;13.10;;;;;;;11.77;76.09;98837.75;124567;1100;64486;-80
2021/05/20 05:04:15;;;;;;;15.20;12.57;;;;;;;11.74;76.07;98837.11;124514;1098;64266;-82
2021/05/20 05:06:42;;;;;;;16.00;12.35;;;;;;;11.68;76.41;98841.09;124523;1100;64333;-81
2021/05/20 05:09:09;;;;;;;14.80;12.03;;;;;;;11.68;76.36;98848.25;124547;1099;64373;-82
2021/05/20 05:11:36;;;;;;;14.53;12.97;;;;;;;11.65;76.19;98847.51;124592;1100;64429;-80
2021/05/20 05:14:04;;;;;;;13.70;12.17;;;;;;;11.69;76.31;98848.16;124527;1105;64429;-81
2021/05/20 05:16:31;;;;;;;15.57;13.73;;;;;;;11.69;75.82;98845.48;124542;1105;64285;-80
2021/05/20 05:18:59;;;;;;;14.93;13.33;;;;;;;11.64;75.87;98845.81;124496;1104;64371;-81
2021/05/20 05:21:26;;;;;;;18.20;13.53;;;;;;;11.64;75.84;98844.97;124611;1104;64259;-81
2021/05/20 05:23:54;;;;;;;15.23;13.67;;;;;;;11.70;76.20;98838.32;124582;1104;64345;-81
2021/05/20 05:26:22;;;;;;;15.97;13.90;;;;;;;11.73;76.26;98846.09;124524;1104;64249;-81
2021/05/20 05:28:50;;;;;;;17.87;16.03;;;;;;;11.79;76.18;98843.81;124532;1104;64493;-81
2021/05/20 05:31:21;;;;;;;16.50;14.77;;;;;;;11.82;76.12;98845.40;124563;1105;64367;-81
2021/05/20 05:33:49;;;;;;;16.10;14.70;;;;;;;11.88;75.95;98846.82;124593;1104;64282;-81
2021/05/20 05:36:18;;;;;;;18.30;16.40;;;;;;;11.93;76.00;98852.64;124608;1104;64349;-81
2021/05/20 05:38:45;;;;;;;19.33;15.83;;;;;;;12.01;76.03;98850.27;124511;1104;64325;-81
2021/05/20 05:41:12;;;;;;;17.70;15.00;;;;;;;12.03;75.88;98849.19;124541;1098;64346;-81
2021/05/20 05:43:40;;;;;;;15.17;13.57;;;;;;;12.01;75.30;98852.95;124540;1104;64285;-80
2021/05/20 05:46:08;;;;;;;14.33;12.90;;;;;;;12.06;75.37;98851.63;124593;1104;64357;-81
2021/05/20 05:48:35;;;;;;;15.53;13.37;;;;;;;12.13;75.38;98857.34;124579;1104;64346;-80
2021/05/20 05:51:05;;;;;;;17.67;13.97;;;;;;;12.16;75.01;98857.11;124444;1104;64460;-80
2021/05/20 05:53:33;;;;;;;16.80;14.70;;;;;;;12.22;74.71;98866.50;124534;1104;64408;-79
2021/05/20 05:56:00;;;;;;;18.07;15.50;;;;;;;12.35;74.91;98858.38;124608;1104;64365;-80
2021/05/20 05:58:28;;;;;;;16.83;15.13;;;;;;;12.47;74.84;98868.98;124627;1097;64335;-80
2021/05/20 06:00:55;;;;;;;17.20;14.80;;;;;;;12.63;74.60;98865.13;124597;1104;64412;-80
2021/05/20 06:03:23;;;;;;;17.77;14.67;;;;;;;12.84;74.53;98857.27;124577;1105;64336;-80
2021/05/20 06:05:50;;;;;;;15.63;13.50;;;;;;;12.99;73.78;98866.77;124692;1104;64390;-80
2021/05/20 06:08:18;;;;;;;15.13;13.10;;;;;;;13.15;73.65;98861.89;124549;1100;64405;-80
2021/05/20 06:10:46;;;;;;;16.00;14.30;;;;;;;13.35;73.38;98867.52;124568;1105;64360;-82
2021/05/20 06:13:14;;;;;;;15.73;13.47;;;;;;;13.74;72.77;98865.23;124630;1105;64332;-81
2021/05/20 06:15:42;;;;;;;17.27;13.83;;;;;;;13.98;72.17;98859.67;124539;1098;64345;-80
2021/05/20 06:18:10;;;;;;;14.43;12.93;;;;;;;14.52;71.21;98853.33;124558;1099;64365;-80
2021/05/20 06:20:37;;;;;;;19.73;13.47;;;;;;;15.07;69.52;98853.10;124509;1098;64352;-80
2021/05/20 06:23:06;;;;;;;16.90;12.37;;;;;;;15.43;68.66;98864.23;124533;1099;64413;-80
2021/05/20 06:25:34;;;;;;;;;;;;;;;15.87;65.83;98862.95;124604;1105;64284;-80
2021/05/20 06:28:06;;;;;;;13.80;12.40;;;;;;;15.80;67.31;98862.68;124469;1105;64380;-81
2021/05/20 06:30:34;;;;;;;14.43;11.83;;;;;;;15.85;67.36;98864.08;124608;1104;64766;-79
2021/05/20 06:33:01;;;;;;;12.50;11.30;;;;;;;15.75;66.93;98864.94;124542;1100;64409;-79
2021/05/20 06:35:28;;;;;;;15.43;12.37;;;;;;;15.52;66.59;98868.80;124553;1099;64362;-80
2021/05/20 06:37:56;;;;;;;14.87;13.23;;;;;;;15.13;66.22;98877.55;124552;1104;64333;-80
2021/05/20 06:40:23;;;;;;;13.77;12.43;;;;;;;14.85;66.81;98881.81;124536;1105;64493;-80
2021/05/20 06:42:50;;;;;;;16.67;13.53;;;;;;;14.68;67.24;98877.04;124485;1098;64255;-80
2021/05/20 06:45:17;;;;;;;14.75;13.20;;;;;;;14.61;67.46;98881.22;124532;1099;64336;-80
2021/05/20 06:47:45;;;;;;;17.73;14.50;;;;;;;14.56;67.56;98878.08;124561;1105;64336;-81
2021/05/20 06:50:12;;;;;;;16.80;14.10;;;;;;;14.51;67.50;98881.14;124464;1104;64307;-80
2021/05/20 06:52:40;;;;;;;15.27;13.43;;;;;;;14.48;67.60;98886.73;124518;1104;64450;-81
2021/05/20 06:55:07;;;;;;;15.77;14.17;;;;;;;14.49;67.79;98881.26;124525;1104;64403;-80
2021/05/20 07:00:21;;;;;;;16.50;12.90;;;;;;;14.69;67.96;98884.09;124635;1100;64275;-81
2021/05/20 07:02:48;;;;;;;14.13;12.50;;;;;;;14.91;66.24;98889.32;124582;1104;64306;-82
2021/05/20 07:05:15;;;;;;;16.97;12.23;;;;;;;15.10;66.47;98888.56;124665;1098;64438;-81
2021/05/20 07:07:43;;;;;;;14.07;12.53;;;;;;;15.43;66.22;98885.72;124701;1098;64432;-80
2021/05/20 07:10:12;;;;;;;13.60;12.27;;;;;;;15.72;65.60;98881.34;124604;1104;64432;-81
2021/05/20 07:12:39;;;;;;;14.75;12.83;;;;;;;15.82;64.92;98875.96;124526;1098;64366;-80
2021/05/20 07:15:07;;;;;;;14.13;12.53;;;;;;;15.93;64.92;98878.55;124540;1099;64325;-80
2021/05/20 07:17:35;;;;;;;13.63;11.63;;;;;;;16.29;64.17;98875.30;124530;1105;64427;-80
2021/05/20 07:20:04;;;;;;;12.43;11.23;;;;;;;16.51;61.91;98877.70;124552;1100;64275;-80
2021/05/20 07:22:32;;;;;;;13.95;11.38;;;;;;;16.28;62.36;98884.37;124660;1104;64457;-79
2021/05/20 07:25:04;;;;;;;13.27;11.97;;;;;;;15.85;62.05;98875.70;124641;1104;64335;-80
2021/05/20 07:27:33;;;;;;;12.13;10.83;;;;;;;15.82;62.76;98884.02;124567;1099;64406;-80
2021/05/20 07:30:01;;;;;;;9.20;7.97;;;;;;;15.88;59.25;98878.11;124617;1100;64499;-80
2021/05/20 07:32:29;;;;;;;7.63;6.83;;;;;;;15.83;61.04;98876.84;124575;1100;64339;-80
2021/05/20 07:34:57;;;;;;;8.35;6.25;;;;;;;15.93;59.12;98875.86;124528;1104;64336;-80
2021/05/20 07:37:25;;;;;;;7.23;5.20;;;;;;;15.95;58.86;98881.08;124578;1105;64355;-80
2021/05/20 07:39:52;;;;;;;5.83;5.30;;;;;;;16.14;58.97;98877.55;124655;1100;64342;-80
2021/05/20 07:42:19;;;;;;;7.87;6.17;;;;;;;16.30;57.42;98877.86;124576;1100;64422;-80
2021/05/20 07:44:47;;;;;;;7.90;5.63;;;;;;;16.37;57.71;98875.44;124561;1104;64339;-79
2021/05/20 07:47:14;;;;;;;5.67;5.10;;;;;;;16.51;55.70;98875.02;124567;1099;64332;-80
2021/05/20 07:49:41;;;;;;;7.35;5.35;;;;;;;16.42;56.08;98873.16;124548;1104;64275;-79
2021/05/20 07:52:08;;;;;;;7.17;5.23;;;;;;;16.38;55.79;98871.77;124564;1100;64310;-80
2021/05/20 07:54:35;;;;;;;7.57;5.77;;;;;;;16.37;55.06;98867.36;124577;1098;64346;-79
2021/05/20 07:57:03;;;;;;;6.05;5.45;;;;;;;16.41;55.27;98874.17;124550;1104;64454;-79
2021/05/20 07:59:30;;;;;;;8.23;6.30;;;;;;;16.57;55.28;98870.89;124452;1100;64345;-79
2021/05/20 08:02:16;;;;;;;4.67;4.07;;;;;;;16.64;53.45;98871.99;124469;1105;64374;-79
2021/05/20 08:04:47;;;;;;;5.03;4.53;;;;;;;16.51;52.58;98879.52;124467;1105;64729;-80
2021/05/20 08:09:48;;;;;;;5.30;3.90;;;;;;;16.30;53.39;98868.91;124468;1105;64349;-80
2021/05/20 08:12:16;;;;;;;6.10;4.00;;;;;;;16.13;53.17;98874.02;124490;1104;64435;-80
2021/05/20 08:15:03;;;;;;;4.50;3.70;;;;;;;16.06;54.00;98880.09;124532;1100;64329;-80
2021/05/20 08:17:30;;;;;;;3.77;3.00;;;;;;;15.99;51.88;98877.98;124595;1099;64310;-79
2021/05/20 08:19:58;;;;;;;5.60;3.00;;;;;;;16.08;52.03;98876.27;124518;1104;64341;-81
2021/05/20 08:22:25;;;;;;;4.13;2.87;;;;;;;16.00;52.07;98878.82;124604;1104;64435;-80
2021/05/20 08:24:53;;;;;;;3.80;2.63;;;;;;;15.94;52.09;98874.86;124566;1104;64418;-80
2021/05/20 08:27:21;;;;;;;4.80;3.20;;;;;;;15.76;51.81;98887.27;124498;1098;64438;-80
2021/05/20 08:29:49;;;;;;;4.73;3.17;;;;;;;15.57;53.36;98877.30;124509;1098;64259;-81
2021/05/20 08:32:17;;;;;;;3.57;2.90;;;;;;;15.77;52.36;98879.09;124644;1100;64333;-83
2021/05/20 08:34:44;;;;;;;8.73;3.70;;;;;;;16.02;52.13;98876.84;124623;1104;64438;-81
2021/05/20 08:37:11;;;;;;;3.13;2.50;;;;;;;16.27;52.75;98872.73;124557;1100;64365;-81
2021/05/20 08:39:38;;;;;;;4.00;3.43;;;;;;;16.49;50.94;98886.91;124667;1104;64278;-80
2021/05/20 08:42:06;;;;;;;3.47;2.70;;;;;;;16.70;49.58;98876.82;124695;1099;64405;-79
2021/05/20 08:44:33;;;;;;;4.63;2.60;;;;;;;16.73;50.23;98876.52;124628;1105;64275;-79
2021/05/20 08:47:01;;;;;;;3.17;2.10;;;;;;;16.70;50.19;98875.98;124489;1099;64355;-79
2021/05/20 08:49:29;;;;;;;6.67;2.67;;;;;;;16.99;50.58;98871.39;124594;1100;64436;-80
2021/05/20 08:51:57;;;;;;;3.00;2.50;;;;;;;17.53;48.92;98867.03;124666;1105;64374;-79
2021/05/20 08:54:25;;;;;;;2.50;2.30;;;;;;;17.77;47.60;98888.06;124520;1104;64377;-79
2021/05/20 08:56:52;;;;;;;4.30;2.60;;;;;;;17.52;45.44;98881.52;124430;1104;64368;-79
2021/05/20 08:59:23;;;;;;;3.90;2.73;;;;;;;17.26;46.92;98875.96;124538;1098;64332;-80
2021/05/20 09:01:52;;;;;;;9.47;2.80;;;;;;;17.06;46.79;98882.41;124490;1104;64313;-80
2021/05/20 09:04:24;;;;;;;3.83;3.20;;;;;;;16.90;48.43;98885.72;124474;1104;65477;-79
2021/05/20 09:06:55;;;;;;;4.13;3.23;;;;;;;16.67;48.37;98891.41;124470;1104;64313;-79
2021/05/20 09:09:29;;;;;;;9.87;4.23;;;;;;;16.46;48.56;98891.58;124514;1104;64402;-79
2021/05/20 09:11:58;;;;;;;6.00;4.50;;;;;;;16.32;49.17;98891.14;124512;1104;64476;-80
2021/05/20 09:14:32;;;;;;;4.93;3.73;;;;;;;16.23;49.74;98890.16;124550;1104;64455;-80
2021/05/20 09:17:12;;;;;;;3.50;3.00;;;;;;;16.22;49.64;98893.85;124575;1104;64518;-80
2021/05/20 09:19:42;;;;;;;3.73;2.53;;;;;;;16.31;50.07;98886.77;124565;1105;64342;-79
2021/05/20 09:22:14;;;;;;;3.80;3.07;;;;;;;16.44;50.04;98880.10;124557;1105;64409;-82
2021/05/20 09:24:52;;;;;;;3.90;2.60;;;;;;;16.74;48.69;98872.83;124487;1104;64497;-79
2021/05/20 09:27:36;;;;;;;3.00;2.20;;;;;;;16.70;49.16;98875.98;124539;1100;64335;-79
2021/05/20 09:30:22;;;;;;;2.97;2.30;;;;;;;16.66;48.79;98880.78;124543;1100;64364;-80
2021/05/20 09:32:53;;;;;;;3.43;2.33;;;;;;;16.42;47.23;98875.86;124552;1104;64374;-80
2021/05/20 09:35:29;;;;;;;2.53;2.10;;;;;;;16.25;48.01;98874.74;124544;1099;64489;-80
2021/05/20 09:38:05;;;;;;;5.37;2.13;;;;;;;16.48;46.43;98882.50;124530;1100;64476;-79
2021/05/20 09:41:02;;;;;;;1.50;1.40;;;;;;;16.87;46.14;98876.09;124573;1098;64432;-80
2021/05/20 09:43:32;;;;;;;2.37;1.57;;;;;;;17.22;47.38;98874.58;124595;1100;64285;-79
2021/05/20 09:46:18;;;;;;;2.90;1.58;;;;;;;17.25;46.23;98870.74;124593;1098;64281;-81
2021/05/20 09:48:49;;;;;;;3.00;1.70;;;;;;;17.59;43.68;98868.30;124654;1105;64413;-79
2021/05/20 09:51:21;;;;;;;1.50;1.40;;;;;;;17.69;41.87;98873.62;124625;1104;64352;-79
2021/05/20 09:53:53;;;;;;;1.40;1.00;;;;;;;17.65;40.14;98864.16;124569;1104;64442;-79
2021/05/20 09:56:41;;;;;;;1.13;1.03;;;;;;;17.48;40.75;98871.18;124526;1099;64284;-79
2021/05/20 09:59:13;;;;;;;2.47;1.60;;;;;;;17.50;40.27;98869.19;124474;1099;64377;-79
2021/05/20 10:01:42;;;;;;;1.63;1.10;;;;;;;17.39;39.26;98872.09;124495;1104;64344;-78
2021/05/20 10:04:28;;;;;;;1.85;1.05;;;;;;;17.41;40.03;98864.72;124516;1099;64336;-79
2021/05/20 10:06:57;;;;;;;4.93;1.67;;;;;;;17.57;40.21;98856.83;124485;1104;64309;-79
2021/05/20 10:09:24;;;;;;;4.40;1.10;;;;;;;17.74;40.29;98852.45;124584;1105;64336;-79
2021/05/20 10:11:52;;;;;;;1.05;0.90;;;;;;;17.89;40.02;98856.36;124487;1099;64412;-79
2021/05/20 10:14:21;;;;;;;2.83;1.20;;;;;;;18.06;40.39;98862.78;124568;1105;64338;-78
2021/05/20 10:16:50;;;;;;;2.30;1.05;;;;;;;17.96;38.20;98868.23;124593;1100;64457;-78
2021/05/20 10:19:18;;;;;;;0.83;0.80;;;;;;;17.92;37.55;98869.53;124501;1099;64393;-78
2021/05/20 10:21:47;;;;;;;2.07;1.27;;;;;;;17.93;38.15;98857.77;124552;1104;64332;-78
2021/05/20 10:24:17;;;;;;;2.63;1.40;;;;;;;17.82;37.09;98870.59;124545;1099;64365;-79
2021/05/20 10:26:44;;;;;;;2.33;1.00;;;;;;;17.67;36.91;98856.77;124491;1100;64667;-79
2021/05/20 10:29:12;;;;;;;1.33;1.07;;;;;;;17.70;35.78;98851.08;124482;1100;64285;-79
2021/05/20 10:31:44;;;;;;;0.80;0.70;;;;;;;17.81;34.85;98858.13;124517;1099;64346;-79
2021/05/20 10:34:15;;;;;;;1.80;1.10;;;;;;;17.85;36.14;98854.11;124500;1100;64425;-79
2021/05/20 10:36:56;;;;;;;1.30;0.80;;;;;;;18.13;35.50;98857.61;124475;1105;64194;-79
2021/05/20 10:39:24;;;;;;;1.53;1.03;;;;;;;18.29;36.07;98851.51;124476;1104;64259;-80
2021/05/20 10:41:52;;;;;;;1.30;0.87;;;;;;;18.17;35.88;98859.84;124579;1098;64409;-78
2021/05/20 10:44:21;;;;;;;0.93;0.43;;;;;;;17.85;33.74;98863.08;124489;1104;64285;-79
2021/05/20 10:46:57;;;;;;;2.50;0.70;;;;;;;17.68;34.85;98861.16;124492;1100;64377;-79
2021/05/20 10:49:48;;;;;;;1.30;1.00;;;;;;;17.80;35.34;98853.72;124503;1098;64362;-79
2021/05/20 10:52:37;;;;;;;2.70;1.03;;;;;;;18.02;36.01;98858.69;124452;1100;64390;-79
2021/05/20 10:55:15;;;;;;;2.35;1.30;;;;;;;18.25;34.84;98863.63;124513;1104;64330;-80
2021/05/20 10:57:48;;;;;;;2.07;1.03;;;;;;;18.18;34.56;98856.13;124510;1098;64351;-80
2021/05/20 11:00:34;;;;;;;1.47;0.70;;;;;;;18.21;36.05;98860.38;124450;1099;64255;-81
2021/05/20 11:03:02;;;;;;;1.50;1.13;;;;;;;18.38;35.35;98850.59;124490;1105;64341;-81
2021/05/20 11:05:42;;;;;;;1.97;0.90;;;;;;;18.45;35.91;98850.80;124534;1104;64264;-80
2021/05/20 11:08:10;;;;;;;1.15;1.00;;;;;;;18.63;36.14;98854.31;124484;1098;64305;-80
2021/05/20 11:10:38;;;;;;;2.87;1.20;;;;;;;18.74;35.63;98843.25;124476;1105;64313;-80
2021/05/20 11:13:05;;;;;;;1.67;0.97;;;;;;;18.84;33.81;98843.19;124448;1104;64370;-79
2021/05/20 11:15:33;;;;;;;1.65;0.80;;;;;;;18.95;34.29;98847.47;124452;1100;64309;-79
2021/05/20 11:18:33;;;;;;;4.00;1.20;;;;;;;19.02;33.13;98835.87;124465;1104;64391;-79
2021/05/20 11:21:01;;;;;;;1.20;1.10;;;;;;;18.97;33.73;98848.16;124497;1104;64387;-79
2021/05/20 11:23:29;;;;;;;3.43;1.10;;;;;;;18.57;34.39;98846.86;124481;1104;64359;-79
2021/05/20 11:26:05;;;;;;;0.80;0.80;;;;;;;18.68;35.09;98843.89;124498;1104;64355;-79
2021/05/20 11:28:47;;;;;;;1.33;0.87;;;;;;;18.81;34.93;98844.34;124546;1098;64342;-79
2021/05/20 11:31:16;;;;;;;1.87;0.70;;;;;;;19.08;33.86;98843.31;124458;1104;64341;-79